createdAt,value
2022-12-01T00:04:04.855Z,97982.19
2022-12-01T00:09:12.143Z,97985.78
2022-12-01T00:14:17.927Z,97996.06
2022-12-01T00:19:25.160Z,97989.66
2022-12-01T00:24:28.605Z,97981.78
2022-12-01T00:29:32.011Z,97985.78
2022-12-01T00:34:35.381Z,97985.69
2022-12-01T00:39:40.024Z,97982.88
2022-12-01T00:44:43.299Z,97984.19
2022-12-01T00:49:47.280Z,97977.63
2022-12-01T00:54:51.315Z,97992.66
2022-12-01T00:59:54.590Z,97988.28
2022-12-01T01:04:57.694Z,97991.22
2022-12-01T01:10:01.107Z,97982.34
2022-12-01T01:15:07.687Z,97986.34
2022-12-01T01:20:11.382Z,97993.59
2022-12-01T01:25:15.564Z,97995.22
2022-12-01T01:30:20.549Z,97984.47
2022-12-01T01:35:24.027Z,97993.34
2022-12-01T01:40:27.347Z,97986.56
2022-12-01T01:45:30.879Z,97997.66
2022-12-01T01:50:35.645Z,97992.78
2022-12-01T01:55:39.406Z,97991.97
2022-12-01T02:00:44.983Z,97996.50
2022-12-01T02:05:48.625Z,98001.53
2022-12-01T02:11:23.294Z,97999.06
2022-12-01T02:16:49.095Z,97993.69
2022-12-01T02:22:23.972Z,97986.63
2022-12-01T02:27:48.415Z,97994.72
2022-12-01T02:33:00.348Z,97999.53
2022-12-01T02:38:09.913Z,98001.41
2022-12-01T02:43:27.777Z,97996.84
2022-12-01T02:48:35.116Z,97994.72
2022-12-01T02:53:38.603Z,98002.22
2022-12-01T02:58:44.951Z,97996.38
2022-12-01T03:04:01.262Z,98007.97
2022-12-01T03:09:07.323Z,98000.94
2022-12-01T03:14:31.127Z,98004.44
2022-12-01T03:19:44.868Z,98009.59
2022-12-01T03:24:50.166Z,98015.22
2022-12-01T03:29:59.304Z,98022.22
2022-12-01T03:35:11.626Z,98027.63
2022-12-01T03:40:19.121Z,98041.88
2022-12-01T03:45:33.696Z,98036.75
2022-12-01T03:50:56.027Z,98049.16
2022-12-01T03:56:03.853Z,98038.84
2022-12-01T04:01:08.846Z,98034.75
2022-12-01T04:06:13.725Z,98042.59
2022-12-01T04:11:17.245Z,98042.72
2022-12-01T04:16:20.794Z,98050.31
2022-12-01T04:21:24.548Z,98052.06
2022-12-01T04:26:33.742Z,98053.38
2022-12-01T04:31:37.483Z,98065.78
2022-12-01T04:36:41.275Z,98070.09
2022-12-01T04:41:45.512Z,98064.72
2022-12-01T04:46:48.879Z,98060.50
2022-12-01T04:51:53.075Z,98070.47
2022-12-01T04:56:56.485Z,98073.63
2022-12-01T05:02:00.390Z,98073.63
2022-12-01T05:07:06.502Z,98078.78
2022-12-01T05:12:09.919Z,98072.09
2022-12-01T05:17:13.471Z,98088.38
2022-12-01T05:22:16.758Z,98091.06
2022-12-01T05:27:20.231Z,98088.38
2022-12-01T05:32:23.883Z,98090.00
2022-12-01T05:37:27.064Z,98102.16
2022-12-01T05:42:30.445Z,98104.16
2022-12-01T05:47:33.558Z,98114.81
2022-12-01T05:52:37.191Z,98115.97
2022-12-01T05:57:40.651Z,98118.16
2022-12-01T06:02:44.366Z,98115.75
2022-12-01T06:07:49.447Z,98122.22
2022-12-01T06:12:52.731Z,98119.13
2022-12-01T06:17:59.595Z,98125.94
2022-12-01T06:23:03.467Z,98127.22
2022-12-01T06:28:06.909Z,98123.69
2022-12-01T06:33:10.314Z,98121.75
2022-12-01T06:38:13.849Z,98129.56
2022-12-01T06:43:17.211Z,98124.63
2022-12-01T06:48:21.759Z,98131.41
2022-12-01T06:53:25.317Z,98128.66
2022-12-01T06:58:29.029Z,98130.72
2022-12-01T07:03:32.610Z,98126.50
2022-12-01T07:08:36.314Z,98128.22
2022-12-01T07:13:41.414Z,98124.06
2022-12-01T07:18:44.757Z,98125.97
2022-12-01T07:23:48.311Z,98129.13
2022-12-01T07:28:53.441Z,98125.72
2022-12-01T07:33:57.102Z,98132.00
2022-12-01T07:39:04.683Z,98123.09
2022-12-01T07:44:10.970Z,98124.47
2022-12-01T07:49:14.243Z,98127.28
2022-12-01T07:54:17.857Z,98124.41
2022-12-01T07:59:21.282Z,98120.81
2022-12-01T08:04:24.774Z,98122.28
2022-12-01T08:09:28.258Z,98112.13
2022-12-01T08:14:31.755Z,98111.97
2022-12-01T08:19:35.465Z,98100.66
2022-12-01T08:24:39.220Z,98090.97
2022-12-01T08:29:44.906Z,98079.19
2022-12-01T08:34:53.307Z,98083.09
2022-12-01T08:39:57.934Z,98080.31
2022-12-01T08:45:01.332Z,98076.28
2022-12-01T08:50:13.302Z,98084.53
2022-12-01T08:55:31.012Z,98069.50
2022-12-01T09:00:42.587Z,98067.00
2022-12-01T09:05:45.798Z,98062.47
2022-12-01T09:10:53.193Z,98050.94
2022-12-01T09:16:07.689Z,98047.56
2022-12-01T09:21:18.528Z,98050.06
2022-12-01T09:26:22.238Z,98039.84
2022-12-01T09:31:26.471Z,98032.59
2022-12-01T09:36:31.583Z,98026.44
2022-12-01T09:41:44.513Z,98021.94
2022-12-01T09:46:56.303Z,98017.06
2022-12-01T09:52:00.414Z,98020.63
2022-12-01T09:57:04.317Z,98004.72
2022-12-01T10:02:26.579Z,97996.91
2022-12-01T10:08:05.928Z,97993.97
2022-12-01T10:13:23.289Z,97993.25
2022-12-01T10:18:32.398Z,97993.28
2022-12-01T10:24:09.929Z,97991.66
2022-12-01T10:29:31.601Z,97988.94
2022-12-01T10:34:38.822Z,97995.69
2022-12-01T10:39:44.714Z,97991.38
2022-12-01T10:44:48.219Z,97988.94
2022-12-01T10:49:53.146Z,97982.78
2022-12-01T10:54:58.150Z,97976.28
2022-12-01T11:00:07.209Z,97973.56
2022-12-01T11:05:24.024Z,97976.63
2022-12-01T11:10:30.732Z,97976.09
2022-12-01T11:15:40.053Z,97980.69
2022-12-01T11:20:43.746Z,97978.25
2022-12-01T11:25:56.183Z,97974.44
2022-12-01T11:31:02.902Z,97971.44
2022-12-01T11:36:10.611Z,97976.03
2022-12-01T11:41:37.774Z,97983.09
2022-12-01T11:46:50.199Z,97983.59
2022-12-01T11:52:17.601Z,97981.72
2022-12-01T11:57:33.557Z,97978.72
2022-12-01T12:03:06.944Z,97976.28
2022-12-01T12:08:31.621Z,97979.56
2022-12-01T12:14:01.209Z,97977.69
2022-12-01T12:19:33.677Z,97977.69
2022-12-01T12:25:10.013Z,97980.63
2022-12-01T12:30:23.834Z,97979.00
2022-12-01T12:35:58.282Z,97977.06
2022-12-01T12:41:22.757Z,97974.34
2022-12-01T12:46:37.728Z,97972.97
2022-12-01T12:52:22.056Z,97968.63
2022-12-01T12:57:44.716Z,97970.53
2022-12-01T13:03:10.252Z,97968.63
2022-12-01T13:08:23.810Z,97962.69
2022-12-01T13:13:46.330Z,97965.91
2022-12-01T13:19:13.621Z,97954.78
2022-12-01T13:24:23.313Z,97965.84
2022-12-01T13:29:40.885Z,97967.47
2022-12-01T13:34:48.475Z,97959.59
2022-12-01T13:39:55.091Z,97960.88
2022-12-01T13:45:09.960Z,97963.81
2022-12-01T13:50:41.032Z,97972.69
2022-12-01T13:56:24.509Z,97975.56
2022-12-01T14:01:28.000Z,97976.53
2022-12-01T14:06:40.866Z,97980.81
2022-12-01T14:11:59.669Z,97984.72
2022-12-01T14:17:03.756Z,97991.63
2022-12-01T14:22:33.882Z,97990.47
2022-12-01T14:27:43.176Z,97992.78
2022-12-01T14:32:46.457Z,97986.91
2022-12-01T14:37:50.534Z,97991.34
2022-12-01T14:42:57.254Z,97993.34
2022-12-01T14:48:04.440Z,97998.88
2022-12-01T14:53:36.612Z,98000.84
2022-12-01T14:58:50.680Z,97999.88
2022-12-01T15:03:58.970Z,98007.34
2022-12-01T15:14:48.112Z,98004.50
2022-12-01T15:19:52.217Z,98007.13
2022-12-01T15:25:16.033Z,98008.66
2022-12-01T15:30:19.203Z,98008.59
2022-12-01T15:35:23.878Z,98009.09
2022-12-01T15:45:57.877Z,98023.88
2022-12-01T15:51:07.386Z,98023.06
2022-12-01T15:56:12.385Z,98031.97
2022-12-01T16:01:19.324Z,98037.63
2022-12-01T16:06:27.432Z,98038.13
2022-12-01T16:11:31.388Z,98046.69
2022-12-01T16:16:46.631Z,98057.72
2022-12-01T16:21:50.023Z,98057.63
2022-12-01T16:26:59.322Z,98058.16
2022-12-01T16:32:38.918Z,98061.06
2022-12-01T16:37:42.720Z,98051.59
2022-12-01T16:42:46.769Z,98058.06
2022-12-01T16:47:50.056Z,98056.06
2022-12-01T16:52:53.483Z,98052.25
2022-12-01T16:57:56.907Z,98060.91
2022-12-01T17:03:01.116Z,98056.47
2022-12-01T17:08:05.154Z,98051.56
2022-12-01T17:13:10.768Z,98052.06
2022-12-01T17:18:15.756Z,98050.66
2022-12-01T17:23:18.976Z,98047.59
2022-12-01T17:28:22.566Z,98042.22
2022-12-01T17:33:25.909Z,98038.69
2022-12-01T17:38:29.404Z,98045.16
2022-12-01T17:43:34.848Z,98043.28
2022-12-01T17:48:46.262Z,98041.13
2022-12-01T17:53:49.762Z,98050.28
2022-12-01T17:58:53.108Z,98050.28
2022-12-01T18:03:57.837Z,98052.41
2022-12-01T18:09:01.214Z,98048.66
2022-12-01T18:14:04.637Z,98057.31
2022-12-01T18:19:10.063Z,98055.69
2022-12-01T18:24:13.542Z,98056.50
2022-12-01T18:29:20.165Z,98055.69
2022-12-01T18:34:24.147Z,98058.84
2022-12-01T18:39:27.898Z,98060.16
2022-12-01T18:44:33.357Z,98054.66
2022-12-01T18:49:36.772Z,98057.63
2022-12-01T18:54:40.517Z,98050.03
2022-12-01T18:59:43.910Z,98049.44
2022-12-01T19:04:47.630Z,98044.03
2022-12-01T19:09:52.156Z,98044.94
2022-12-01T19:14:55.847Z,98036.25
2022-12-01T19:20:00.422Z,98044.22
2022-12-01T19:25:03.917Z,98040.44
2022-12-01T19:30:10.989Z,98046.91
2022-12-01T19:35:14.681Z,98043.63
2022-12-01T19:40:19.318Z,98045.84
2022-12-01T19:45:23.035Z,98051.81
2022-12-01T19:50:28.463Z,98054.25
2022-12-01T19:55:32.376Z,98056.47
2022-12-01T20:00:35.753Z,98053.28
2022-12-01T20:05:39.508Z,98056.06
2022-12-01T20:10:47.865Z,98066.13
2022-12-01T20:15:51.243Z,98060.84
2022-12-01T20:21:11.470Z,98069.84
2022-12-01T20:26:16.339Z,98063.94
2022-12-01T20:31:25.540Z,98071.56
2022-12-01T20:36:29.494Z,98077.78
2022-12-01T20:41:32.959Z,98078.00
2022-12-01T20:46:38.545Z,98076.63
2022-12-01T20:51:42.140Z,98072.28
2022-12-01T20:56:46.013Z,98073.34
2022-12-01T21:01:49.718Z,98076.28
2022-12-01T21:06:58.520Z,98072.19
2022-12-01T21:12:03.528Z,98071.03
2022-12-01T21:17:28.819Z,98075.03
2022-12-01T21:22:32.330Z,98074.94
2022-12-01T21:27:36.436Z,98076.03
2022-12-01T21:32:43.879Z,98074.63
2022-12-01T21:37:49.542Z,98071.59
2022-12-01T21:42:53.431Z,98070.78
2022-12-01T21:48:17.535Z,98071.84
2022-12-01T21:53:22.612Z,98066.69
2022-12-01T21:58:28.655Z,98065.03
2022-12-01T22:03:43.507Z,98070.44
2022-12-01T22:08:50.294Z,98070.22
2022-12-01T22:14:13.028Z,98067.25
2022-12-01T22:19:28.704Z,98062.94
2022-12-01T22:24:38.071Z,98069.41
2022-12-01T22:29:46.160Z,98074.53
2022-12-01T22:34:53.694Z,98065.84
2022-12-01T22:39:57.768Z,98063.09
2022-12-01T22:45:23.674Z,98060.59
2022-12-01T22:50:31.731Z,98065.41
2022-12-01T22:55:35.232Z,98058.84
2022-12-01T23:00:39.365Z,98055.03
2022-12-01T23:05:42.695Z,98069.31
2022-12-01T23:10:46.130Z,98063.56
2022-12-01T23:15:52.884Z,98057.84
2022-12-01T23:20:58.975Z,98054.81
2022-12-01T23:26:07.179Z,98059.06
2022-12-01T23:31:10.869Z,98057.41
2022-12-01T23:36:19.256Z,98054.63
2022-12-01T23:41:31.225Z,98045.63
2022-12-01T23:46:34.625Z,98049.03
2022-12-01T23:51:40.412Z,98047.66
2022-12-01T23:56:45.856Z,98048.13
